createdAt,value
2018-02-16T00:01:17.987Z,102203.07
2018-02-16T00:04:19.886Z,102198.95
2018-02-16T00:07:21.784Z,102196.61
2018-02-16T00:10:23.770Z,102198.72
2018-02-16T00:13:25.675Z,102194.80
2018-02-16T00:16:27.674Z,102189.56
2018-02-16T00:19:29.671Z,102189.80
2018-02-16T00:22:31.672Z,102182.60
2018-02-16T00:25:33.668Z,102192.80
2018-02-16T00:28:35.561Z,102194.57
2018-02-16T00:31:37.488Z,102194.93
2018-02-16T00:34:40.070Z,102199.26
2018-02-16T00:37:42.986Z,102193.33
2018-02-16T00:40:44.891Z,102202.31
2018-02-16T00:43:46.883Z,102201.68
2018-02-16T00:46:48.879Z,102205.18
2018-02-16T00:49:50.775Z,102221.51
2018-02-16T00:52:52.772Z,102238.32
2018-02-16T00:55:54.671Z,102236.65
2018-02-16T00:58:56.992Z,102239.71
2018-02-16T01:01:58.980Z,102240.65
2018-02-16T01:05:01.034Z,102254.73
2018-02-16T01:08:02.963Z,102265.72
2018-02-16T01:11:04.959Z,102269.58
2018-02-16T01:14:06.855Z,102279.26
2018-02-16T01:17:08.750Z,102288.17
2018-02-16T01:20:10.634Z,102297.46
2018-02-16T01:23:12.543Z,102300.60
2018-02-16T01:26:14.451Z,102307.69
2018-02-16T01:29:16.443Z,102309.16
2018-02-16T01:32:18.422Z,102310.79
2018-02-16T01:35:21.346Z,102309.79
2018-02-16T01:38:23.242Z,102318.05
2018-02-16T01:41:25.140Z,102317.98
2018-02-16T01:44:28.055Z,102326.57
2018-02-16T01:47:29.951Z,102333.32
2018-02-16T01:50:32.019Z,102334.38
2018-02-16T01:53:33.954Z,102343.61
2018-02-16T01:56:35.990Z,102348.43
2018-02-16T01:59:39.894Z,102340.06
2018-02-16T02:02:42.032Z,102339.37
2018-02-16T02:05:43.991Z,102334.73
2018-02-16T02:08:46.090Z,102342.90
2018-02-16T02:11:47.996Z,102348.13
2018-02-16T02:14:49.990Z,102351.38
2018-02-16T02:17:51.907Z,102352.37
2018-02-16T02:20:53.884Z,102355.41
2018-02-16T02:23:56.014Z,102360.83
2018-02-16T02:26:57.983Z,102362.63
2018-02-16T02:29:59.972Z,102357.57
2018-02-16T02:33:01.868Z,102349.51
2018-02-16T02:36:03.868Z,102353.64
2018-02-16T02:39:05.770Z,102359.49
2018-02-16T02:42:07.655Z,102364.00
2018-02-16T02:45:09.550Z,102357.87
2018-02-16T02:48:11.460Z,102363.85
2018-02-16T02:51:13.343Z,102371.89
2018-02-16T02:54:15.344Z,102375.06
2018-02-16T02:57:18.268Z,102368.42
2018-02-16T03:00:20.357Z,102378.26
2018-02-16T03:03:22.255Z,102374.55
2018-02-16T03:06:24.164Z,102378.09
2018-02-16T03:09:26.152Z,102375.37
2018-02-16T03:12:28.143Z,102380.59
2018-02-16T03:15:30.045Z,102385.80
2018-02-16T03:18:31.938Z,102386.19
2018-02-16T03:21:33.831Z,102392.00
2018-02-16T03:24:35.730Z,102403.21
2018-02-16T03:27:37.635Z,102384.87
2018-02-16T03:30:39.523Z,102411.78
2018-02-16T03:33:41.510Z,102430.20
2018-02-16T03:36:43.411Z,102438.62
2018-02-16T03:39:45.312Z,102435.88
2018-02-16T03:42:47.320Z,102448.69
2018-02-16T03:45:49.333Z,102457.18
2018-02-16T03:48:51.303Z,102458.99
2018-02-16T03:51:53.302Z,102460.91
2018-02-16T03:54:55.299Z,102469.86
2018-02-16T03:57:57.296Z,102469.74
2018-02-16T04:00:59.190Z,102468.86
2018-02-16T04:04:01.083Z,102463.42
2018-02-16T04:07:04.009Z,102471.96
2018-02-16T04:10:06.004Z,102474.84
2018-02-16T04:13:07.899Z,102483.97
2018-02-16T04:16:10.083Z,102496.52
2018-02-16T04:19:11.996Z,102501.65
2018-02-16T04:22:13.891Z,102506.11
2018-02-16T04:25:15.784Z,102515.79
2018-02-16T04:28:17.666Z,102512.93
2018-02-16T04:31:19.555Z,102513.17
2018-02-16T04:34:21.447Z,102515.71
2018-02-16T04:37:23.340Z,102515.24
2018-02-16T04:40:25.235Z,102516.75
2018-02-16T04:43:27.114Z,102516.93
2018-02-16T04:46:30.084Z,102517.89
2018-02-16T04:49:31.980Z,102511.91
2018-02-16T04:52:33.879Z,102517.54
2018-02-16T04:55:35.766Z,102517.42
2018-02-16T04:58:37.650Z,102525.82
2018-02-16T05:01:39.563Z,102526.65
2018-02-16T05:04:41.445Z,102534.99
2018-02-16T05:07:43.348Z,102541.99
2018-02-16T05:10:45.236Z,102537.04
2018-02-16T05:13:47.130Z,102546.15
2018-02-16T05:16:49.016Z,102554.32
2018-02-16T05:19:50.903Z,102554.41
2018-02-16T05:22:52.803Z,102556.43
2018-02-16T05:25:54.689Z,102556.39
2018-02-16T05:28:57.644Z,102560.29
2018-02-16T05:31:59.538Z,102575.16
2018-02-16T05:35:03.508Z,102578.94
2018-02-16T05:38:05.482Z,102581.56
2018-02-16T05:41:07.371Z,102579.03
2018-02-16T05:44:09.292Z,102577.79
2018-02-16T05:47:11.182Z,102582.61
2018-02-16T05:50:13.079Z,102595.47
2018-02-16T05:53:14.958Z,102594.99
2018-02-16T05:56:16.847Z,102602.40
2018-02-16T05:59:19.784Z,102603.97
2018-02-16T06:02:21.671Z,102610.16
2018-02-16T06:05:23.562Z,102608.65
2018-02-16T06:08:25.459Z,102608.11
2018-02-16T06:11:27.362Z,102615.09
2018-02-16T06:14:29.247Z,102614.99
2018-02-16T06:17:33.156Z,102617.93
2018-02-16T06:20:35.047Z,102625.96
2018-02-16T06:23:38.934Z,102630.54
2018-02-16T06:26:40.831Z,102633.74
2018-02-16T06:29:42.719Z,102633.56
2018-02-16T06:32:44.603Z,102637.45
2018-02-16T06:35:48.563Z,102637.62
2018-02-16T06:38:50.455Z,102645.76
2018-02-16T06:41:52.356Z,102644.96
2018-02-16T06:44:55.279Z,102649.83
2018-02-16T06:47:58.203Z,102655.27
2018-02-16T06:51:00.203Z,102657.83
2018-02-16T06:54:02.083Z,102665.55
2018-02-16T06:57:04.075Z,102671.50
2018-02-16T07:00:05.883Z,102678.75
2018-02-16T07:03:07.763Z,102686.13
2018-02-16T07:06:09.651Z,102689.36
2018-02-16T07:09:11.536Z,102694.74
2018-02-16T07:12:14.008Z,102699.89
2018-02-16T07:15:15.900Z,102706.82
2018-02-16T07:18:17.778Z,102704.07
2018-02-16T07:21:20.696Z,102707.92
2018-02-16T07:24:22.587Z,102709.77
2018-02-16T07:27:25.467Z,102719.96
2018-02-16T07:30:29.450Z,102725.93
2018-02-16T07:33:31.379Z,102723.80
2018-02-16T07:36:33.267Z,102731.43
2018-02-16T07:39:35.170Z,102731.78
2018-02-16T07:42:37.148Z,102731.63
2018-02-16T07:45:39.045Z,102729.86
2018-02-16T07:48:41.035Z,102733.13
2018-02-16T07:51:43.036Z,102737.76
2018-02-16T07:54:45.032Z,102741.89
2018-02-16T07:57:47.070Z,102748.21
2018-02-16T08:00:49.077Z,102750.33
2018-02-16T08:03:51.251Z,102755.28
2018-02-16T08:06:53.234Z,102756.18
2018-02-16T08:09:55.224Z,102764.49
2018-02-16T08:12:57.124Z,102763.66
2018-02-16T08:15:59.119Z,102764.24
2018-02-16T08:19:01.109Z,102770.56
2018-02-16T08:22:03.006Z,102771.23
2018-02-16T08:25:04.912Z,102773.78
2018-02-16T08:28:06.905Z,102779.10
2018-02-16T08:31:08.794Z,102782.13
2018-02-16T08:34:10.691Z,102781.63
2018-02-16T08:37:12.588Z,102786.49
2018-02-16T08:40:14.483Z,102789.00
2018-02-16T08:43:17.415Z,102802.26
2018-02-16T08:46:19.399Z,102812.97
2018-02-16T08:49:22.344Z,102795.29
2018-02-16T08:52:24.315Z,102815.62
2018-02-16T08:55:26.198Z,102817.87
2018-02-16T08:58:28.095Z,102820.78
2018-02-16T09:01:29.982Z,102821.90
2018-02-16T09:04:31.874Z,102820.95
2018-02-16T09:07:33.771Z,102830.79
2018-02-16T09:10:35.660Z,102832.87
2018-02-16T09:13:37.659Z,102839.57
2018-02-16T09:16:39.551Z,102848.44
2018-02-16T09:19:41.431Z,102848.30
2018-02-16T09:22:43.324Z,102852.88
2018-02-16T09:25:45.223Z,102858.64
2018-02-16T09:28:47.116Z,102863.80
2018-02-16T09:31:49.628Z,102866.90
2018-02-16T09:34:51.510Z,102869.57
2018-02-16T09:37:53.444Z,102873.17
2018-02-16T09:40:55.343Z,102877.79
2018-02-16T09:43:57.426Z,102880.95
2018-02-16T09:47:00.318Z,102881.00
2018-02-16T09:50:03.245Z,102886.07
2018-02-16T09:53:05.145Z,102887.42
2018-02-16T09:56:07.133Z,102892.35
2018-02-16T09:59:09.027Z,102884.96
2018-02-16T10:02:11.032Z,102886.80
2018-02-16T10:05:13.014Z,102889.64
2018-02-16T10:08:15.031Z,102890.64
2018-02-16T10:11:17.016Z,102892.69
2018-02-16T10:14:19.048Z,102886.41
2018-02-16T10:17:21.038Z,102885.65
2018-02-16T10:20:23.016Z,102894.05
2018-02-16T10:23:24.911Z,102896.64
2018-02-16T10:26:26.806Z,102898.95
2018-02-16T10:29:28.735Z,102903.76
2018-02-16T10:32:30.694Z,102904.10
2018-02-16T10:35:32.614Z,102911.34
2018-02-16T10:38:34.596Z,102916.45
2018-02-16T10:41:36.596Z,102915.50
2018-02-16T10:44:39.552Z,102920.01
2018-02-16T10:47:41.518Z,102919.77
2018-02-16T10:50:43.508Z,102918.99
2018-02-16T10:53:45.398Z,102917.89
2018-02-16T10:56:47.319Z,102911.23
2018-02-16T10:59:49.323Z,102910.32
2018-02-16T11:02:55.475Z,102910.44
2018-02-16T11:05:57.392Z,102911.54
2018-02-16T11:09:03.559Z,102910.90
2018-02-16T11:12:08.985Z,102911.08
2018-02-16T11:15:10.966Z,102910.58
2018-02-16T11:18:16.975Z,102904.93
2018-02-16T11:21:19.011Z,102905.05
2018-02-16T11:24:20.959Z,102905.36
2018-02-16T11:27:22.854Z,102905.67
2018-02-16T11:30:24.750Z,102904.50
2018-02-16T11:33:26.751Z,102912.35
2018-02-16T11:36:28.641Z,102912.57
2018-02-16T11:39:30.607Z,102916.24
2018-02-16T11:42:33.507Z,102916.83
2018-02-16T11:45:35.450Z,102916.35
2018-02-16T11:48:37.360Z,102917.33
2018-02-16T11:51:39.347Z,102917.64
2018-02-16T11:54:42.279Z,102914.70
2018-02-16T11:57:44.263Z,102913.58
2018-02-16T12:00:46.171Z,102909.70
2018-02-16T12:03:48.156Z,102909.35
2018-02-16T12:06:50.064Z,102907.48
2018-02-16T17:46:34.913Z,102877.03
